sensor_id;sensor_type;location;lat;lon;timestamp;P1;durP1;ratioP1;P2;durP2;ratioP2
21337;SDS011;10827;50.878;4.382;2022-09-09T00:04:12;3.83;;;1.50;;
21337;SDS011;10827;50.878;4.382;2022-09-09T00:06:49;3.23;;;1.40;;
21337;SDS011;10827;50.878;4.382;2022-09-09T00:09:29;9.10;;;1.83;;
21337;SDS011;10827;50.878;4.382;2022-09-09T00:12:05;5.67;;;1.50;;
21337;SDS011;10827;50.878;4.382;2022-09-09T00:17:41;6.03;;;1.60;;
21337;SDS011;10827;50.878;4.382;2022-09-09T00:20:24;2.47;;;1.30;;
21337;SDS011;10827;50.878;4.382;2022-09-09T00:25:30;5.50;;;1.87;;
21337;SDS011;10827;50.878;4.382;2022-09-09T00:28:13;5.10;;;1.70;;
21337;SDS011;10827;50.878;4.382;2022-09-09T00:30:43;4.07;;;1.50;;
21337;SDS011;10827;50.878;4.382;2022-09-09T00:33:13;4.10;;;1.63;;
21337;SDS011;10827;50.878;4.382;2022-09-09T00:35:56;4.57;;;1.47;;
21337;SDS011;10827;50.878;4.382;2022-09-09T00:38:24;4.97;;;1.50;;
21337;SDS011;10827;50.878;4.382;2022-09-09T00:43:36;4.17;;;1.63;;
21337;SDS011;10827;50.878;4.382;2022-09-09T00:49:19;4.67;;;1.57;;
21337;SDS011;10827;50.878;4.382;2022-09-09T00:57:37;5.03;;;1.80;;
21337;SDS011;10827;50.878;4.382;2022-09-09T01:00:17;4.57;;;1.40;;
21337;SDS011;10827;50.878;4.382;2022-09-09T01:03:02;6.90;;;1.67;;
21337;SDS011;10827;50.878;4.382;2022-09-09T01:06:18;5.63;;;1.50;;
21337;SDS011;10827;50.878;4.382;2022-09-09T01:11:25;3.77;;;1.50;;
21337;SDS011;10827;50.878;4.382;2022-09-09T01:14:30;3.70;;;1.43;;
21337;SDS011;10827;50.878;4.382;2022-09-09T01:20:01;4.97;;;1.93;;
21337;SDS011;10827;50.878;4.382;2022-09-09T01:23:11;8.60;;;2.67;;
21337;SDS011;10827;50.878;4.382;2022-09-09T01:28:25;5.33;;;1.67;;
21337;SDS011;10827;50.878;4.382;2022-09-09T01:30:53;4.77;;;1.40;;
21337;SDS011;10827;50.878;4.382;2022-09-09T01:33:21;4.27;;;1.47;;
21337;SDS011;10827;50.878;4.382;2022-09-09T01:38:13;6.93;;;1.60;;
21337;SDS011;10827;50.878;4.382;2022-09-09T01:40:40;4.83;;;1.70;;
21337;SDS011;10827;50.878;4.382;2022-09-09T01:43:05;6.93;;;1.70;;
21337;SDS011;10827;50.878;4.382;2022-09-09T01:45:32;5.43;;;1.50;;
21337;SDS011;10827;50.878;4.382;2022-09-09T01:47:59;5.77;;;1.60;;
21337;SDS011;10827;50.878;4.382;2022-09-09T01:50:25;6.50;;;2.00;;
21337;SDS011;10827;50.878;4.382;2022-09-09T01:52:52;8.53;;;1.80;;
21337;SDS011;10827;50.878;4.382;2022-09-09T01:55:30;7.30;;;1.87;;
21337;SDS011;10827;50.878;4.382;2022-09-09T02:04:03;6.37;;;2.00;;
21337;SDS011;10827;50.878;4.382;2022-09-09T02:06:52;10.37;;;2.20;;
21337;SDS011;10827;50.878;4.382;2022-09-09T02:09:22;9.00;;;1.93;;
21337;SDS011;10827;50.878;4.382;2022-09-09T02:11:52;9.63;;;1.90;;
21337;SDS011;10827;50.878;4.382;2022-09-09T02:14:25;6.67;;;1.97;;
21337;SDS011;10827;50.878;4.382;2022-09-09T02:17:03;7.57;;;1.80;;
21337;SDS011;10827;50.878;4.382;2022-09-09T02:19:37;8.67;;;2.03;;
21337;SDS011;10827;50.878;4.382;2022-09-09T02:22:08;7.93;;;2.00;;
21337;SDS011;10827;50.878;4.382;2022-09-09T02:24:35;9.57;;;1.90;;
21337;SDS011;10827;50.878;4.382;2022-09-09T02:27:03;9.83;;;2.37;;
21337;SDS011;10827;50.878;4.382;2022-09-09T02:29:38;7.23;;;1.70;;
21337;SDS011;10827;50.878;4.382;2022-09-09T02:32:14;8.10;;;1.80;;
21337;SDS011;10827;50.878;4.382;2022-09-09T02:34:47;6.47;;;2.30;;
21337;SDS011;10827;50.878;4.382;2022-09-09T02:37:16;9.37;;;1.73;;
21337;SDS011;10827;50.878;4.382;2022-09-09T02:39:45;7.33;;;2.43;;
21337;SDS011;10827;50.878;4.382;2022-09-09T02:42:12;10.67;;;2.40;;
21337;SDS011;10827;50.878;4.382;2022-09-09T02:44:39;14.27;;;2.77;;
21337;SDS011;10827;50.878;4.382;2022-09-09T02:50:08;8.90;;;2.10;;
21337;SDS011;10827;50.878;4.382;2022-09-09T02:58:27;11.10;;;2.10;;
21337;SDS011;10827;50.878;4.382;2022-09-09T03:00:54;11.50;;;2.70;;
21337;SDS011;10827;50.878;4.382;2022-09-09T03:03:22;8.53;;;1.90;;
21337;SDS011;10827;50.878;4.382;2022-09-09T03:05:48;9.50;;;3.03;;
21337;SDS011;10827;50.878;4.382;2022-09-09T03:08:14;8.27;;;2.03;;
21337;SDS011;10827;50.878;4.382;2022-09-09T03:10:41;7.53;;;2.00;;
21337;SDS011;10827;50.878;4.382;2022-09-09T03:13:07;8.27;;;2.77;;
21337;SDS011;10827;50.878;4.382;2022-09-09T03:15:33;5.27;;;2.03;;
21337;SDS011;10827;50.878;4.382;2022-09-09T03:17:59;6.03;;;1.93;;
21337;SDS011;10827;50.878;4.382;2022-09-09T03:20:26;9.20;;;1.97;;
21337;SDS011;10827;50.878;4.382;2022-09-09T03:22:53;5.13;;;1.80;;
21337;SDS011;10827;50.878;4.382;2022-09-09T03:25:20;11.90;;;2.23;;
21337;SDS011;10827;50.878;4.382;2022-09-09T03:27:48;8.87;;;2.13;;
21337;SDS011;10827;50.878;4.382;2022-09-09T03:30:15;8.27;;;2.57;;
21337;SDS011;10827;50.878;4.382;2022-09-09T03:32:41;9.57;;;2.23;;
21337;SDS011;10827;50.878;4.382;2022-09-09T03:35:07;18.00;;;2.27;;
21337;SDS011;10827;50.878;4.382;2022-09-09T03:37:34;5.47;;;1.87;;
21337;SDS011;10827;50.878;4.382;2022-09-09T03:40:00;11.87;;;2.50;;
21337;SDS011;10827;50.878;4.382;2022-09-09T03:42:26;13.37;;;2.47;;
21337;SDS011;10827;50.878;4.382;2022-09-09T03:44:52;9.63;;;2.17;;
21337;SDS011;10827;50.878;4.382;2022-09-09T03:47:20;10.43;;;2.07;;
21337;SDS011;10827;50.878;4.382;2022-09-09T03:49:47;8.53;;;2.10;;
21337;SDS011;10827;50.878;4.382;2022-09-09T03:52:13;9.63;;;2.10;;
21337;SDS011;10827;50.878;4.382;2022-09-09T03:54:40;8.93;;;2.47;;
21337;SDS011;10827;50.878;4.382;2022-09-09T03:57:07;9.20;;;2.17;;
21337;SDS011;10827;50.878;4.382;2022-09-09T03:59:36;10.93;;;2.30;;
21337;SDS011;10827;50.878;4.382;2022-09-09T04:02:02;7.93;;;2.13;;
21337;SDS011;10827;50.878;4.382;2022-09-09T04:04:28;7.20;;;2.30;;
21337;SDS011;10827;50.878;4.382;2022-09-09T04:06:54;11.30;;;2.20;;
21337;SDS011;10827;50.878;4.382;2022-09-09T04:09:20;9.73;;;2.70;;
21337;SDS011;10827;50.878;4.382;2022-09-09T04:11:46;8.00;;;2.17;;
21337;SDS011;10827;50.878;4.382;2022-09-09T04:14:11;10.77;;;2.03;;
21337;SDS011;10827;50.878;4.382;2022-09-09T04:16:38;12.10;;;2.20;;
21337;SDS011;10827;50.878;4.382;2022-09-09T04:19:04;7.43;;;1.70;;
21337;SDS011;10827;50.878;4.382;2022-09-09T04:21:31;8.73;;;2.10;;
21337;SDS011;10827;50.878;4.382;2022-09-09T04:23:57;10.70;;;2.13;;
21337;SDS011;10827;50.878;4.382;2022-09-09T04:26:23;12.23;;;2.40;;
21337;SDS011;10827;50.878;4.382;2022-09-09T04:28:49;13.07;;;2.10;;
21337;SDS011;10827;50.878;4.382;2022-09-09T04:31:21;11.47;;;2.63;;
21337;SDS011;10827;50.878;4.382;2022-09-09T04:33:51;10.97;;;2.30;;
21337;SDS011;10827;50.878;4.382;2022-09-09T04:36:17;9.23;;;2.03;;
21337;SDS011;10827;50.878;4.382;2022-09-09T04:38:44;11.00;;;2.70;;
21337;SDS011;10827;50.878;4.382;2022-09-09T04:41:11;14.97;;;2.27;;
21337;SDS011;10827;50.878;4.382;2022-09-09T04:43:37;9.37;;;3.13;;
21337;SDS011;10827;50.878;4.382;2022-09-09T04:46:04;10.07;;;2.83;;
21337;SDS011;10827;50.878;4.382;2022-09-09T04:48:30;9.80;;;2.70;;
21337;SDS011;10827;50.878;4.382;2022-09-09T04:53:23;6.97;;;2.33;;
21337;SDS011;10827;50.878;4.382;2022-09-09T04:55:50;9.23;;;2.90;;
21337;SDS011;10827;50.878;4.382;2022-09-09T04:58:17;8.93;;;2.30;;
21337;SDS011;10827;50.878;4.382;2022-09-09T05:00:43;10.53;;;2.80;;
21337;SDS011;10827;50.878;4.382;2022-09-09T05:03:09;13.33;;;2.73;;
21337;SDS011;10827;50.878;4.382;2022-09-09T05:05:35;13.00;;;2.67;;
21337;SDS011;10827;50.878;4.382;2022-09-09T05:08:04;8.90;;;2.60;;
21337;SDS011;10827;50.878;4.382;2022-09-09T05:10:32;14.23;;;3.00;;
21337;SDS011;10827;50.878;4.382;2022-09-09T05:12:58;10.77;;;2.90;;
21337;SDS011;10827;50.878;4.382;2022-09-09T05:15:24;10.37;;;2.70;;
21337;SDS011;10827;50.878;4.382;2022-09-09T05:17:50;10.17;;;2.87;;
21337;SDS011;10827;50.878;4.382;2022-09-09T05:20:18;11.40;;;3.00;;
21337;SDS011;10827;50.878;4.382;2022-09-09T05:22:43;15.27;;;3.10;;
21337;SDS011;10827;50.878;4.382;2022-09-09T05:25:09;10.67;;;3.17;;
21337;SDS011;10827;50.878;4.382;2022-09-09T05:27:36;10.57;;;2.83;;
21337;SDS011;10827;50.878;4.382;2022-09-09T05:30:02;12.60;;;2.90;;
21337;SDS011;10827;50.878;4.382;2022-09-09T05:32:29;11.30;;;3.07;;
21337;SDS011;10827;50.878;4.382;2022-09-09T05:34:59;11.33;;;3.13;;
21337;SDS011;10827;50.878;4.382;2022-09-09T05:37:25;14.63;;;3.57;;
21337;SDS011;10827;50.878;4.382;2022-09-09T05:39:50;12.17;;;3.17;;
21337;SDS011;10827;50.878;4.382;2022-09-09T05:42:16;15.37;;;3.03;;
21337;SDS011;10827;50.878;4.382;2022-09-09T05:44:42;12.27;;;3.07;;
21337;SDS011;10827;50.878;4.382;2022-09-09T05:47:08;8.50;;;2.80;;
21337;SDS011;10827;50.878;4.382;2022-09-09T05:49:34;9.07;;;3.03;;
21337;SDS011;10827;50.878;4.382;2022-09-09T05:52:00;14.20;;;3.40;;
21337;SDS011;10827;50.878;4.382;2022-09-09T05:54:26;13.70;;;3.27;;
21337;SDS011;10827;50.878;4.382;2022-09-09T05:56:53;17.83;;;3.30;;
21337;SDS011;10827;50.878;4.382;2022-09-09T05:59:19;11.87;;;3.20;;
21337;SDS011;10827;50.878;4.382;2022-09-09T06:01:45;11.17;;;2.97;;
21337;SDS011;10827;50.878;4.382;2022-09-09T06:04:11;11.77;;;2.93;;
21337;SDS011;10827;50.878;4.382;2022-09-09T06:06:38;15.10;;;2.97;;
21337;SDS011;10827;50.878;4.382;2022-09-09T06:09:05;9.63;;;3.03;;
21337;SDS011;10827;50.878;4.382;2022-09-09T06:11:34;9.53;;;2.80;;
21337;SDS011;10827;50.878;4.382;2022-09-09T06:14:01;8.97;;;2.70;;
21337;SDS011;10827;50.878;4.382;2022-09-09T06:16:27;16.03;;;2.70;;
21337;SDS011;10827;50.878;4.382;2022-09-09T06:18:54;14.93;;;3.10;;
21337;SDS011;10827;50.878;4.382;2022-09-09T06:23:48;9.10;;;2.90;;
21337;SDS011;10827;50.878;4.382;2022-09-09T06:26:26;11.83;;;2.70;;
21337;SDS011;10827;50.878;4.382;2022-09-09T06:28:56;12.53;;;3.03;;
21337;SDS011;10827;50.878;4.382;2022-09-09T06:31:24;10.30;;;2.93;;
21337;SDS011;10827;50.878;4.382;2022-09-09T06:33:52;14.57;;;3.03;;
21337;SDS011;10827;50.878;4.382;2022-09-09T06:36:21;12.83;;;2.80;;
21337;SDS011;10827;50.878;4.382;2022-09-09T06:38:57;10.97;;;3.30;;
21337;SDS011;10827;50.878;4.382;2022-09-09T06:41:26;21.87;;;3.77;;
21337;SDS011;10827;50.878;4.382;2022-09-09T06:43:53;15.67;;;2.63;;
21337;SDS011;10827;50.878;4.382;2022-09-09T06:46:27;9.10;;;2.40;;
21337;SDS011;10827;50.878;4.382;2022-09-09T06:48:56;10.37;;;2.47;;
21337;SDS011;10827;50.878;4.382;2022-09-09T06:51:24;18.57;;;3.70;;
21337;SDS011;10827;50.878;4.382;2022-09-09T06:54:09;10.97;;;2.63;;
21337;SDS011;10827;50.878;4.382;2022-09-09T06:56:36;21.10;;;3.17;;
21337;SDS011;10827;50.878;4.382;2022-09-09T06:59:05;14.37;;;2.87;;
21337;SDS011;10827;50.878;4.382;2022-09-09T07:01:37;13.20;;;3.17;;
21337;SDS011;10827;50.878;4.382;2022-09-09T07:04:06;14.87;;;2.50;;
21337;SDS011;10827;50.878;4.382;2022-09-09T07:06:35;14.17;;;2.70;;
21337;SDS011;10827;50.878;4.382;2022-09-09T07:09:06;9.50;;;2.40;;
21337;SDS011;10827;50.878;4.382;2022-09-09T07:11:36;12.30;;;2.70;;
21337;SDS011;10827;50.878;4.382;2022-09-09T07:14:03;6.97;;;2.40;;
21337;SDS011;10827;50.878;4.382;2022-09-09T07:16:29;11.97;;;2.67;;
21337;SDS011;10827;50.878;4.382;2022-09-09T07:18:56;10.33;;;2.30;;
21337;SDS011;10827;50.878;4.382;2022-09-09T07:21:24;11.77;;;2.20;;
21337;SDS011;10827;50.878;4.382;2022-09-09T07:23:52;9.47;;;2.57;;
21337;SDS011;10827;50.878;4.382;2022-09-09T07:26:25;15.60;;;2.77;;
21337;SDS011;10827;50.878;4.382;2022-09-09T07:28:56;10.33;;;2.37;;
21337;SDS011;10827;50.878;4.382;2022-09-09T07:31:32;11.33;;;2.40;;
21337;SDS011;10827;50.878;4.382;2022-09-09T07:34:00;11.90;;;2.50;;
21337;SDS011;10827;50.878;4.382;2022-09-09T07:36:29;9.03;;;2.20;;
21337;SDS011;10827;50.878;4.382;2022-09-09T07:38:58;8.40;;;2.30;;
21337;SDS011;10827;50.878;4.382;2022-09-09T07:41:28;12.83;;;2.63;;
21337;SDS011;10827;50.878;4.382;2022-09-09T07:43:57;8.77;;;2.30;;
21337;SDS011;10827;50.878;4.382;2022-09-09T07:46:24;6.87;;;2.07;;
21337;SDS011;10827;50.878;4.382;2022-09-09T07:48:52;8.67;;;3.00;;
21337;SDS011;10827;50.878;4.382;2022-09-09T07:51:21;9.70;;;2.73;;
21337;SDS011;10827;50.878;4.382;2022-09-09T07:53:53;11.03;;;2.60;;
21337;SDS011;10827;50.878;4.382;2022-09-09T07:56:22;5.40;;;2.53;;
21337;SDS011;10827;50.878;4.382;2022-09-09T07:58:49;6.63;;;2.53;;
21337;SDS011;10827;50.878;4.382;2022-09-09T08:01:18;9.60;;;3.00;;
21337;SDS011;10827;50.878;4.382;2022-09-09T08:03:46;8.57;;;2.27;;
21337;SDS011;10827;50.878;4.382;2022-09-09T08:06:18;10.33;;;2.40;;
21337;SDS011;10827;50.878;4.382;2022-09-09T08:08:44;8.87;;;2.50;;
21337;SDS011;10827;50.878;4.382;2022-09-09T08:11:13;11.23;;;2.60;;
21337;SDS011;10827;50.878;4.382;2022-09-09T08:13:40;11.33;;;2.77;;
21337;SDS011;10827;50.878;4.382;2022-09-09T08:16:09;6.37;;;2.43;;
21337;SDS011;10827;50.878;4.382;2022-09-09T08:18:42;9.17;;;2.67;;
21337;SDS011;10827;50.878;4.382;2022-09-09T08:21:13;12.53;;;2.60;;
21337;SDS011;10827;50.878;4.382;2022-09-09T08:23:42;10.37;;;2.50;;
21337;SDS011;10827;50.878;4.382;2022-09-09T08:28:38;13.93;;;2.53;;
21337;SDS011;10827;50.878;4.382;2022-09-09T08:31:10;8.30;;;2.03;;
21337;SDS011;10827;50.878;4.382;2022-09-09T08:33:44;15.20;;;2.83;;
21337;SDS011;10827;50.878;4.382;2022-09-09T08:36:15;13.93;;;2.97;;
21337;SDS011;10827;50.878;4.382;2022-09-09T08:38:42;9.63;;;2.83;;
21337;SDS011;10827;50.878;4.382;2022-09-09T08:49:30;8.77;;;2.63;;
21337;SDS011;10827;50.878;4.382;2022-09-09T08:52:01;9.17;;;3.50;;
21337;SDS011;10827;50.878;4.382;2022-09-09T08:54:32;9.93;;;3.13;;
21337;SDS011;10827;50.878;4.382;2022-09-09T08:57:00;12.00;;;4.37;;
21337;SDS011;10827;50.878;4.382;2022-09-09T08:59:27;10.43;;;3.00;;
21337;SDS011;10827;50.878;4.382;2022-09-09T09:02:14;13.80;;;3.27;;
21337;SDS011;10827;50.878;4.382;2022-09-09T09:07:17;10.03;;;3.00;;
21337;SDS011;10827;50.878;4.382;2022-09-09T09:10:13;11.53;;;2.97;;
21337;SDS011;10827;50.878;4.382;2022-09-09T09:12:44;11.97;;;2.77;;
21337;SDS011;10827;50.878;4.382;2022-09-09T09:15:25;7.43;;;2.50;;
21337;SDS011;10827;50.878;4.382;2022-09-09T09:17:53;8.17;;;2.77;;
21337;SDS011;10827;50.878;4.382;2022-09-09T09:20:28;9.03;;;2.40;;
21337;SDS011;10827;50.878;4.382;2022-09-09T09:23:24;10.70;;;2.90;;
21337;SDS011;10827;50.878;4.382;2022-09-09T09:25:55;7.13;;;2.53;;
21337;SDS011;10827;50.878;4.382;2022-09-09T09:28:25;14.50;;;3.03;;
21337;SDS011;10827;50.878;4.382;2022-09-09T09:31:07;8.60;;;2.77;;
21337;SDS011;10827;50.878;4.382;2022-09-09T09:33:52;8.40;;;2.57;;
21337;SDS011;10827;50.878;4.382;2022-09-09T09:36:19;12.40;;;3.30;;
21337;SDS011;10827;50.878;4.382;2022-09-09T09:39:06;6.33;;;2.90;;
21337;SDS011;10827;50.878;4.382;2022-09-09T09:41:34;11.13;;;3.00;;
21337;SDS011;10827;50.878;4.382;2022-09-09T09:44:04;13.77;;;3.80;;
21337;SDS011;10827;50.878;4.382;2022-09-09T09:46:30;10.60;;;3.33;;
21337;SDS011;10827;50.878;4.382;2022-09-09T09:49:08;9.03;;;3.13;;
21337;SDS011;10827;50.878;4.382;2022-09-09T09:51:35;6.67;;;2.60;;
21337;SDS011;10827;50.878;4.382;2022-09-09T09:57:07;12.87;;;3.50;;
21337;SDS011;10827;50.878;4.382;2022-09-09T09:59:38;16.50;;;3.60;;
21337;SDS011;10827;50.878;4.382;2022-09-09T10:04:41;12.03;;;2.90;;
21337;SDS011;10827;50.878;4.382;2022-09-09T10:07:11;7.57;;;2.50;;
21337;SDS011;10827;50.878;4.382;2022-09-09T10:09:38;10.47;;;2.50;;
21337;SDS011;10827;50.878;4.382;2022-09-09T10:14:57;10.87;;;2.80;;
21337;SDS011;10827;50.878;4.382;2022-09-09T10:23:25;10.93;;;3.17;;
21337;SDS011;10827;50.878;4.382;2022-09-09T10:36:47;7.07;;;3.10;;
21337;SDS011;10827;50.878;4.382;2022-09-09T10:52:47;10.83;;;3.17;;
21337;SDS011;10827;50.878;4.382;2022-09-09T10:55:19;10.43;;;3.77;;
21337;SDS011;10827;50.878;4.382;2022-09-09T10:57:51;12.90;;;3.43;;
21337;SDS011;10827;50.878;4.382;2022-09-09T11:03:15;8.63;;;2.70;;
21337;SDS011;10827;50.878;4.382;2022-09-09T11:05:45;7.60;;;2.60;;
21337;SDS011;10827;50.878;4.382;2022-09-09T11:08:18;7.20;;;2.73;;
21337;SDS011;10827;50.878;4.382;2022-09-09T11:19:02;3.53;;;1.50;;
21337;SDS011;10827;50.878;4.382;2022-09-09T11:21:37;11.67;;;2.27;;
21337;SDS011;10827;50.878;4.382;2022-09-09T11:24:16;4.80;;;1.90;;
21337;SDS011;10827;50.878;4.382;2022-09-09T11:32:47;7.50;;;1.90;;
21337;SDS011;10827;50.878;4.382;2022-09-09T11:38:46;3.00;;;1.17;;
21337;SDS011;10827;50.878;4.382;2022-09-09T11:41:16;10.50;;;2.30;;
21337;SDS011;10827;50.878;4.382;2022-09-09T11:43:47;7.33;;;2.40;;
21337;SDS011;10827;50.878;4.382;2022-09-09T11:46:19;8.30;;;1.80;;
21337;SDS011;10827;50.878;4.382;2022-09-09T11:49:01;10.33;;;2.23;;
21337;SDS011;10827;50.878;4.382;2022-09-09T11:51:29;3.23;;;2.00;;
21337;SDS011;10827;50.878;4.382;2022-09-09T11:54:01;6.57;;;2.10;;
21337;SDS011;10827;50.878;4.382;2022-09-09T11:56:46;6.33;;;1.90;;
21337;SDS011;10827;50.878;4.382;2022-09-09T11:59:25;4.77;;;2.50;;
21337;SDS011;10827;50.878;4.382;2022-09-09T12:04:38;6.17;;;2.20;;
21337;SDS011;10827;50.878;4.382;2022-09-09T12:12:25;7.77;;;2.60;;
21337;SDS011;10827;50.878;4.382;2022-09-09T12:20:14;9.73;;;2.97;;
21337;SDS011;10827;50.878;4.382;2022-09-09T12:31:10;9.80;;;2.50;;
21337;SDS011;10827;50.878;4.382;2022-09-09T12:33:42;7.37;;;2.50;;
21337;SDS011;10827;50.878;4.382;2022-09-09T12:36:31;7.20;;;2.40;;
21337;SDS011;10827;50.878;4.382;2022-09-09T12:38:59;6.57;;;1.70;;
21337;SDS011;10827;50.878;4.382;2022-09-09T12:41:50;5.47;;;2.40;;
21337;SDS011;10827;50.878;4.382;2022-09-09T12:44:22;5.57;;;1.70;;
21337;SDS011;10827;50.878;4.382;2022-09-09T12:46:50;7.97;;;2.40;;
21337;SDS011;10827;50.878;4.382;2022-09-09T12:52:04;5.40;;;1.70;;
21337;SDS011;10827;50.878;4.382;2022-09-09T12:54:38;9.33;;;2.07;;
21337;SDS011;10827;50.878;4.382;2022-09-09T12:57:11;8.47;;;2.37;;
21337;SDS011;10827;50.878;4.382;2022-09-09T12:59:42;8.00;;;2.10;;
21337;SDS011;10827;50.878;4.382;2022-09-09T13:02:20;15.00;;;2.40;;
21337;SDS011;10827;50.878;4.382;2022-09-09T13:04:48;5.32;;;1.40;;
21337;SDS011;10827;50.878;4.382;2022-09-09T13:07:15;3.17;;;1.73;;
21337;SDS011;10827;50.878;4.382;2022-09-09T13:09:42;3.40;;;1.48;;
21337;SDS011;10827;50.878;4.382;2022-09-09T13:12:19;4.35;;;1.52;;
21337;SDS011;10827;50.878;4.382;2022-09-09T13:14:48;6.50;;;2.00;;
21337;SDS011;10827;50.878;4.382;2022-09-09T13:17:21;3.83;;;1.70;;
21337;SDS011;10827;50.878;4.382;2022-09-09T13:19:49;4.30;;;1.80;;
21337;SDS011;10827;50.878;4.382;2022-09-09T13:22:37;6.93;;;1.93;;
21337;SDS011;10827;50.878;4.382;2022-09-09T13:25:17;3.77;;;1.60;;
21337;SDS011;10827;50.878;4.382;2022-09-09T13:30:42;7.70;;;2.50;;
21337;SDS011;10827;50.878;4.382;2022-09-09T13:35:47;5.47;;;1.90;;
21337;SDS011;10827;50.878;4.382;2022-09-09T13:38:24;2.58;;;1.50;;
21337;SDS011;10827;50.878;4.382;2022-09-09T13:43:21;4.95;;;1.70;;
21337;SDS011;10827;50.878;4.382;2022-09-09T13:45:56;6.55;;;1.70;;
21337;SDS011;10827;50.878;4.382;2022-09-09T13:48:26;3.17;;;1.48;;
21337;SDS011;10827;50.878;4.382;2022-09-09T13:50:56;3.90;;;1.58;;
21337;SDS011;10827;50.878;4.382;2022-09-09T13:53:24;5.32;;;1.60;;
21337;SDS011;10827;50.878;4.382;2022-09-09T13:55:50;3.75;;;1.63;;
21337;SDS011;10827;50.878;4.382;2022-09-09T13:58:17;5.75;;;1.77;;
21337;SDS011;10827;50.878;4.382;2022-09-09T14:00:44;6.55;;;1.58;;
21337;SDS011;10827;50.878;4.382;2022-09-09T14:03:11;3.65;;;1.60;;
21337;SDS011;10827;50.878;4.382;2022-09-09T14:05:38;5.25;;;2.10;;
21337;SDS011;10827;50.878;4.382;2022-09-09T14:08:04;7.00;;;2.00;;
21337;SDS011;10827;50.878;4.382;2022-09-09T14:10:31;6.50;;;2.08;;
21337;SDS011;10827;50.878;4.382;2022-09-09T14:12:57;7.10;;;2.45;;
21337;SDS011;10827;50.878;4.382;2022-09-09T14:15:23;8.05;;;2.10;;
21337;SDS011;10827;50.878;4.382;2022-09-09T14:17:49;3.88;;;2.00;;
21337;SDS011;10827;50.878;4.382;2022-09-09T14:20:17;4.45;;;1.80;;
21337;SDS011;10827;50.878;4.382;2022-09-09T14:22:44;11.45;;;2.20;;
21337;SDS011;10827;50.878;4.382;2022-09-09T14:25:10;3.92;;;1.70;;
21337;SDS011;10827;50.878;4.382;2022-09-09T14:27:38;7.60;;;2.35;;
21337;SDS011;10827;50.878;4.382;2022-09-09T14:30:05;3.15;;;1.88;;
21337;SDS011;10827;50.878;4.382;2022-09-09T14:32:31;4.80;;;2.10;;
21337;SDS011;10827;50.878;4.382;2022-09-09T14:34:58;4.65;;;1.65;;
21337;SDS011;10827;50.878;4.382;2022-09-09T14:37:24;4.97;;;2.22;;
21337;SDS011;10827;50.878;4.382;2022-09-09T14:39:50;4.82;;;2.00;;
21337;SDS011;10827;50.878;4.382;2022-09-09T14:42:17;8.88;;;2.10;;
21337;SDS011;10827;50.878;4.382;2022-09-09T14:44:43;5.20;;;2.30;;
21337;SDS011;10827;50.878;4.382;2022-09-09T14:47:09;6.30;;;2.42;;
21337;SDS011;10827;50.878;4.382;2022-09-09T14:49:35;8.95;;;2.70;;
21337;SDS011;10827;50.878;4.382;2022-09-09T14:52:02;9.65;;;2.17;;
21337;SDS011;10827;50.878;4.382;2022-09-09T14:54:29;3.17;;;1.45;;
21337;SDS011;10827;50.878;4.382;2022-09-09T14:56:55;4.97;;;2.03;;
21337;SDS011;10827;50.878;4.382;2022-09-09T14:59:25;5.45;;;2.03;;
21337;SDS011;10827;50.878;4.382;2022-09-09T15:01:54;4.90;;;1.77;;
21337;SDS011;10827;50.878;4.382;2022-09-09T15:04:20;4.07;;;1.45;;
21337;SDS011;10827;50.878;4.382;2022-09-09T15:06:47;7.22;;;1.83;;
21337;SDS011;10827;50.878;4.382;2022-09-09T15:09:15;5.75;;;2.17;;
21337;SDS011;10827;50.878;4.382;2022-09-09T15:11:45;2.40;;;1.50;;
21337;SDS011;10827;50.878;4.382;2022-09-09T15:14:12;5.15;;;2.20;;
21337;SDS011;10827;50.878;4.382;2022-09-09T15:16:39;6.43;;;2.00;;
21337;SDS011;10827;50.878;4.382;2022-09-09T15:19:08;5.55;;;1.60;;
21337;SDS011;10827;50.878;4.382;2022-09-09T15:21:37;2.97;;;1.45;;
21337;SDS011;10827;50.878;4.382;2022-09-09T15:24:03;5.63;;;2.10;;
21337;SDS011;10827;50.878;4.382;2022-09-09T15:26:30;7.85;;;2.08;;
21337;SDS011;10827;50.878;4.382;2022-09-09T15:28:56;5.78;;;1.95;;
21337;SDS011;10827;50.878;4.382;2022-09-09T15:31:26;5.30;;;2.13;;
21337;SDS011;10827;50.878;4.382;2022-09-09T15:33:56;5.38;;;2.15;;
21337;SDS011;10827;50.878;4.382;2022-09-09T15:36:27;4.88;;;2.10;;
21337;SDS011;10827;50.878;4.382;2022-09-09T15:38:58;4.75;;;1.80;;
21337;SDS011;10827;50.878;4.382;2022-09-09T15:41:24;4.97;;;1.80;;
21337;SDS011;10827;50.878;4.382;2022-09-09T15:43:51;2.72;;;0.98;;
21337;SDS011;10827;50.878;4.382;2022-09-09T15:46:27;3.70;;;1.92;;
21337;SDS011;10827;50.878;4.382;2022-09-09T15:48:58;7.15;;;2.22;;
21337;SDS011;10827;50.878;4.382;2022-09-09T15:51:34;3.50;;;1.65;;
21337;SDS011;10827;50.878;4.382;2022-09-09T15:54:00;3.65;;;2.10;;
21337;SDS011;10827;50.878;4.382;2022-09-09T15:56:27;5.97;;;1.85;;
21337;SDS011;10827;50.878;4.382;2022-09-09T15:58:55;5.05;;;1.95;;
21337;SDS011;10827;50.878;4.382;2022-09-09T16:01:23;4.03;;;1.70;;
21337;SDS011;10827;50.878;4.382;2022-09-09T16:03:49;6.22;;;2.70;;
21337;SDS011;10827;50.878;4.382;2022-09-09T16:06:20;7.03;;;2.53;;
21337;SDS011;10827;50.878;4.382;2022-09-09T16:08:48;7.63;;;2.10;;
21337;SDS011;10827;50.878;4.382;2022-09-09T16:11:20;4.75;;;1.58;;
21337;SDS011;10827;50.878;4.382;2022-09-09T16:13:51;9.15;;;2.13;;
21337;SDS011;10827;50.878;4.382;2022-09-09T16:16:19;7.18;;;2.22;;
21337;SDS011;10827;50.878;4.382;2022-09-09T16:18:50;7.35;;;3.03;;
21337;SDS011;10827;50.878;4.382;2022-09-09T16:21:19;9.20;;;2.80;;
21337;SDS011;10827;50.878;4.382;2022-09-09T16:23:49;5.93;;;2.70;;
21337;SDS011;10827;50.878;4.382;2022-09-09T16:26:16;5.32;;;1.98;;
21337;SDS011;10827;50.878;4.382;2022-09-09T16:28:43;10.35;;;2.28;;
21337;SDS011;10827;50.878;4.382;2022-09-09T16:31:10;3.10;;;1.10;;
21337;SDS011;10827;50.878;4.382;2022-09-09T16:33:39;3.10;;;1.95;;
21337;SDS011;10827;50.878;4.382;2022-09-09T16:36:06;3.78;;;2.03;;
21337;SDS011;10827;50.878;4.382;2022-09-09T16:38:37;5.17;;;2.43;;
21337;SDS011;10827;50.878;4.382;2022-09-09T16:41:03;3.83;;;2.00;;
21337;SDS011;10827;50.878;4.382;2022-09-09T16:43:31;6.20;;;2.20;;
21337;SDS011;10827;50.878;4.382;2022-09-09T16:46:01;3.03;;;1.92;;
21337;SDS011;10827;50.878;4.382;2022-09-09T16:48:47;7.43;;;2.25;;
21337;SDS011;10827;50.878;4.382;2022-09-09T16:51:15;4.22;;;2.00;;
21337;SDS011;10827;50.878;4.382;2022-09-09T16:53:44;5.38;;;2.28;;
21337;SDS011;10827;50.878;4.382;2022-09-09T16:56:12;6.25;;;2.30;;
21337;SDS011;10827;50.878;4.382;2022-09-09T16:58:39;6.88;;;2.38;;
21337;SDS011;10827;50.878;4.382;2022-09-09T17:01:09;6.93;;;2.25;;
21337;SDS011;10827;50.878;4.382;2022-09-09T17:03:39;6.75;;;2.28;;
21337;SDS011;10827;50.878;4.382;2022-09-09T17:06:11;4.15;;;2.30;;
21337;SDS011;10827;50.878;4.382;2022-09-09T17:08:39;4.65;;;2.50;;
21337;SDS011;10827;50.878;4.382;2022-09-09T17:11:16;8.35;;;2.90;;
21337;SDS011;10827;50.878;4.382;2022-09-09T17:13:43;7.60;;;3.20;;
21337;SDS011;10827;50.878;4.382;2022-09-09T17:16:11;8.95;;;3.33;;
21337;SDS011;10827;50.878;4.382;2022-09-09T17:18:38;7.05;;;3.75;;
21337;SDS011;10827;50.878;4.382;2022-09-09T17:21:08;5.50;;;2.83;;
21337;SDS011;10827;50.878;4.382;2022-09-09T17:23:40;6.20;;;3.20;;
21337;SDS011;10827;50.878;4.382;2022-09-09T17:26:07;6.25;;;2.80;;
21337;SDS011;10827;50.878;4.382;2022-09-09T17:28:37;7.30;;;2.75;;
21337;SDS011;10827;50.878;4.382;2022-09-09T17:31:08;8.18;;;3.08;;
21337;SDS011;10827;50.878;4.382;2022-09-09T17:33:36;9.55;;;2.45;;
21337;SDS011;10827;50.878;4.382;2022-09-09T17:36:11;4.60;;;2.10;;